Main page
METAR-TAF:

METAR-TAF

Airports :

Sharurah Domestic Airport

Sharurah, Saudi Arabia

latitude: 17-28N, longitude: 047-07E, elevation: 720 m

Current weather observation

The report was made 52 minutes ago, at 23:00 UTC
Wind 6 kt from the East/Northeast
Temperature 37°C
Humidity 10%
Pressure 1002 hPa
Visibility 10 km or more
no clouds below 1500 m and no cumulonimbus

METAR: OESH 142300Z 07006KT CAVOK 37/00 Q1002 NOSIG

Time: 02:52 (23:52 UTC)

Forecast

The report was made 52 minutes ago, at 23:00 UTC
Forecast valid from 15 at 00 UTC to 16 at 06 UTC
Wind 3 kt from variable directions
Visibility: 7000 m
Few clouds at a height of 4000 ft
Becoming
from 15 at 04 UTC to 15 at 06 UTC
Wind 12 kt from the North
Becoming
from 15 at 20 UTC to 15 at 22 UTC
Wind 3 kt from variable directions

TAF: OESH 142300Z 1500/1606 VRB03KT 7000 FEW040 BECMG 1504/1506 36012KT BECMG 1520/1522 VRB03KT

Weather observations and forecasts of more than 4000 airports (METAR and TAF reports).

The available stations are represented by yellow and red dots on the map.

Hover mouse over dot to see the name of the station.

Then click to see weather observations and forecasts.

To change the map : click on the green buttons with a black cross to zoom in, on the green button with a dash to zoom out, or on the green arrows for adjacent maps.


METAR-TAF: